Terminal Aerodrome Forecast
Issued by NWS Kansas City/Pleasant Hill, MO

Home | Current Version | Previous Version | Text Only | Print | Product List | Glossary On
Versions: 1 2 3 4 5 6 7 8 9 10 11 12 13 14 15 16 17 18 19 20 21
850
FTUS43 KEAX 200507 CCB
TAFMCI
TAF COR
KMCI 200507Z 2005/2024 07011KT 3SM -RA BR OVC004
     FM200800 10010KT 6SM SHRA BR OVC015
     FM201000 12006KT P6SM VCSH OVC015
     FM201400 21007KT P6SM OVC003
     FM201500 24008KT P6SM OVC008
     FM201900 26011KT P6SM BKN040=

USA.gov is the U.S. government's official web portal to all federal, state and local government web resources and services.